Aviation Digital Data Service (ADDS)

Output produced by METARs form (2311 UTC 01 July 2015)
found at http://aviationweather.gov/adds/metars/
 
KBAF 011728Z 0118/0218 22008KT P6SM BKN040 
     FM012000 26011KT P6SM VCTS BKN060CB 
     FM012200 25008KT P6SM BKN060 
     FM020000 26006KT P6SM SCT080 
     FM020900 VRB03KT 3SM BR FEW250 
     FM021100 VRB03KT P6SM FEW250